Ncc Rabigh — HZQA — position and weather

sailwx.info

Track history (hours):
 
Tides and Currents Weather Stations Pressure Air Temp Water Temp Dewpoint Dewpoint Depression Visibility Wind Speed Wind Dir Waves Ship Positions

Ncc Rabigh

Last reported at 2016-Aug-30 04:29 UTC. Time now 2016-Aug-30 04:59 UTC.
Position N 31°58' E 120°26'.

Length 183 m; draft 8.2 m.

Type: Tanker. MMSI: 403575000.

Date/timePositionNaut miles runAvg speedWind from/ knotsBaromVisibWave heightAir tempDewpointWater temp
2016-Aug-30 04:29N 31°58' E 120°26'0 0.0
2016-Aug-30 03:17N 31°58' E 120°26'0 0.0
2016-Aug-30 02:23N 31°58' E 120°26'0 0.0
2016-Aug-30 01:29N 31°58' E 120°26'0 0.0
2016-Aug-30 00:29N 31°58' E 120°26'0 0.0
2016-Aug-29 23:29N 31°58' E 120°26'0 0.0
2016-Aug-29 22:29N 31°58' E 120°26'0 0.0
2016-Aug-29 21:17N 31°58' E 120°26'0 0.0
2016-Aug-29 20:32N 31°58' E 120°26'0 0.0
2016-Aug-29 19:17N 31°58' E 120°26'0 0.0
2016-Aug-29 18:32N 31°58' E 120°26'0 0.0
2016-Aug-29 17:29N 31°58' E 120°26'0 0.0
2016-Aug-29 16:26N 31°58' E 120°26'0 0.0
2016-Aug-29 15:23N 31°58' E 120°26'0 0.0
2016-Aug-29 14:29N 31°58' E 120°26'0 0.0
2016-Aug-29 13:29N 31°58' E 120°26'0 0.0
2016-Aug-29 12:29N 31°58' E 120°26'0 0.0
2016-Aug-29 11:32N 31°58' E 120°26'0 0.0
2016-Aug-29 10:29N 31°58' E 120°26'1 1.0
2016-Aug-29 09:33N 31°59' E 120°27'4 3.9
2016-Aug-29 08:33N 32°02' E 120°30'3 1.4
2016-Aug-29 06:27N 32°01' E 120°34'0 0.1
2016-Aug-29 05:33N 32°01' E 120°33'8 8.1
2016-Aug-29 04:32N 32°00' E 120°43'13 9.7
2016-Aug-29 03:10N 31°51' E 120°54'610.6
2016-Aug-29 02:33N 31°47' E 120°60'1212.0
2016-Aug-29 01:33N 31°40' E 121°12'1010.1
2016-Aug-29 00:33N 31°33' E 121°20'0 0.1
2016-Aug-28 23:33N 31°33' E 121°20'0 0.0
2016-Aug-28 22:33N 31°33' E 121°20'0 0.0
2016-Aug-28 21:30N 31°33' E 121°20'0 0.0
2016-Aug-28 20:30N 31°33' E 121°20'0 0.0
2016-Aug-28 19:33N 31°33' E 121°20'0 0.0
2016-Aug-28 18:33N 31°33' E 121°20'0 0.0
2016-Aug-28 17:33N 31°33' E 121°20'0 0.0
2016-Aug-28 16:33N 31°33' E 121°20'0 0.1
2016-Aug-28 15:30N 31°33' E 121°20'0 0.1
2016-Aug-28 14:33N 31°33' E 121°20'0 0.0
2016-Aug-28 13:27N 31°33' E 121°20'0 0.0
2016-Aug-28 12:30N 31°33' E 121°20'0 0.1
2016-Aug-28 11:33N 31°33' E 121°20'2 2.4
2016-Aug-28 10:33N 31°35' E 121°18'1 0.0
2016-Aug-27 10:23N 31°35' E 121°17'0 0.0
2016-Aug-27 06:29N 31°35' E 121°17'3 1.6
2016-Aug-27 04:30N 31°33' E 121°20'0 0.0
2016-Aug-27 03:33N 31°33' E 121°20'0 0.0
2016-Aug-27 02:30N 31°33' E 121°20'0 0.0
2016-Aug-27 01:33N 31°33' E 121°20'0 0.0
2016-Aug-27 00:33N 31°33' E 121°20'0 0.0
2016-Aug-26 23:30N 31°33' E 121°20'0 0.0
2016-Aug-26 22:33N 31°33' E 121°20'0 0.0
2016-Aug-26 21:33N 31°33' E 121°20'0 0.0
2016-Aug-26 20:30N 31°33' E 121°20'0 0.0
2016-Aug-26 19:30N 31°33' E 121°20'0 0.0
2016-Aug-26 18:30N 31°33' E 121°20'0 0.0
2016-Aug-26 17:33N 31°33' E 121°20'0 0.0
2016-Aug-26 16:30N 31°33' E 121°20'0 0.0
2016-Aug-26 15:33N 31°33' E 121°20'0 0.2
2016-Aug-26 14:32N 31°33' E 121°20'0 0.0
2016-Aug-26 13:32N 31°33' E 121°20'0 0.1
2016-Aug-26 12:29N 31°33' E 121°20'0 0.1
2016-Aug-26 11:32N 31°33' E 121°20'0 0.1
2016-Aug-26 10:34N 31°33' E 121°20'9 8.5
2016-Aug-26 09:33N 31°28' E 121°28'9 9.0
2016-Aug-26 08:33N 31°23' E 121°36'111 5.0
2016-Aug-25 10:11N 29°53' E 122°53'811.2
2016-Aug-25 09:27N 29°48' E 122°45'1011.5
2016-Aug-25 08:33N 29°41' E 122°37'1510.7
2016-Aug-25 07:09N 29°44' E 122°20'610.4
2016-Aug-25 06:32N 29°48' E 122°14'18 9.3
2016-Aug-25 04:33N 29°57' E 121°56'10 9.6
2016-Aug-25 03:30N 29°59' E 121°45'0 0.0
2016-Aug-24 09:33N 29°59' E 121°45'2 1.5
2016-Aug-24 08:28N 29°59' E 121°47'11 0.4
2016-Aug-23 06:32N 29°58' E 121°59'1111.1
2016-Aug-23 05:33N 29°54' E 122°11'1111.0
2016-Aug-23 04:32N 29°45' E 122°19'10 9.9
2016-Aug-23 03:32N 29°44' E 122°31'4 0.2
2016-Aug-22 09:33N 29°43' E 122°35'9 9.0
2016-Aug-22 08:33N 29°34' E 122°35'7 7.2
2016-Aug-22 07:32N 29°26' E 122°35'1010.5
2016-Aug-22 06:33N 29°16' E 122°35'  
Track history (hours):
 
Tides and Currents Weather Stations Pressure Air Temp Water Temp Dewpoint Dewpoint Depression Visibility Wind Speed Wind Dir Waves Ship Positions

Ncc Rabigh

Last reported at 2016-Aug-30 04:29 UTC. Time now 2016-Aug-30 04:59 UTC.
Position N 31°58' E 120°26'.

Length 183 m; draft 8.2 m.

Type: Tanker. MMSI: 403575000.

Date/timePositionNaut miles runAvg speedWind from/ knotsBaromVisibWave heightAir tempDewpointWater temp
2016-Aug-30 04:29N 31°58' E 120°26'0 0.0
2016-Aug-30 03:17N 31°58' E 120°26'0 0.0
2016-Aug-30 02:23N 31°58' E 120°26'0 0.0
2016-Aug-30 01:29N 31°58' E 120°26'0 0.0
2016-Aug-30 00:29N 31°58' E 120°26'0 0.0
2016-Aug-29 23:29N 31°58' E 120°26'0 0.0
2016-Aug-29 22:29N 31°58' E 120°26'0 0.0
2016-Aug-29 21:17N 31°58' E 120°26'0 0.0
2016-Aug-29 20:32N 31°58' E 120°26'0 0.0
2016-Aug-29 19:17N 31°58' E 120°26'0 0.0
2016-Aug-29 18:32N 31°58' E 120°26'0 0.0
2016-Aug-29 17:29N 31°58' E 120°26'0 0.0
2016-Aug-29 16:26N 31°58' E 120°26'0 0.0
2016-Aug-29 15:23N 31°58' E 120°26'0 0.0
2016-Aug-29 14:29N 31°58' E 120°26'0 0.0
2016-Aug-29 13:29N 31°58' E 120°26'0 0.0
2016-Aug-29 12:29N 31°58' E 120°26'0 0.0
2016-Aug-29 11:32N 31°58' E 120°26'0 0.0
2016-Aug-29 10:29N 31°58' E 120°26'1 1.0
2016-Aug-29 09:33N 31°59' E 120°27'4 3.9
2016-Aug-29 08:33N 32°02' E 120°30'3 1.4
2016-Aug-29 06:27N 32°01' E 120°34'0 0.1
2016-Aug-29 05:33N 32°01' E 120°33'8 8.1
2016-Aug-29 04:32N 32°00' E 120°43'13 9.7
2016-Aug-29 03:10N 31°51' E 120°54'610.6
2016-Aug-29 02:33N 31°47' E 120°60'1212.0
2016-Aug-29 01:33N 31°40' E 121°12'1010.1
2016-Aug-29 00:33N 31°33' E 121°20'0 0.1
2016-Aug-28 23:33N 31°33' E 121°20'0 0.0
2016-Aug-28 22:33N 31°33' E 121°20'0 0.0
2016-Aug-28 21:30N 31°33' E 121°20'0 0.0
2016-Aug-28 20:30N 31°33' E 121°20'0 0.0
2016-Aug-28 19:33N 31°33' E 121°20'0 0.0
2016-Aug-28 18:33N 31°33' E 121°20'0 0.0
2016-Aug-28 17:33N 31°33' E 121°20'0 0.0
2016-Aug-28 16:33N 31°33' E 121°20'0 0.1
2016-Aug-28 15:30N 31°33' E 121°20'0 0.1
2016-Aug-28 14:33N 31°33' E 121°20'0 0.0
2016-Aug-28 13:27N 31°33' E 121°20'0 0.0
2016-Aug-28 12:30N 31°33' E 121°20'0 0.1
2016-Aug-28 11:33N 31°33' E 121°20'2 2.4
2016-Aug-28 10:33N 31°35' E 121°18'1 0.0
2016-Aug-27 10:23N 31°35' E 121°17'0 0.0
2016-Aug-27 06:29N 31°35' E 121°17'3 1.6
2016-Aug-27 04:30N 31°33' E 121°20'0 0.0
2016-Aug-27 03:33N 31°33' E 121°20'0 0.0
2016-Aug-27 02:30N 31°33' E 121°20'0 0.0
2016-Aug-27 01:33N 31°33' E 121°20'0 0.0
2016-Aug-27 00:33N 31°33' E 121°20'0 0.0
2016-Aug-26 23:30N 31°33' E 121°20'0 0.0
2016-Aug-26 22:33N 31°33' E 121°20'0 0.0
2016-Aug-26 21:33N 31°33' E 121°20'0 0.0
2016-Aug-26 20:30N 31°33' E 121°20'0 0.0
2016-Aug-26 19:30N 31°33' E 121°20'0 0.0
2016-Aug-26 18:30N 31°33' E 121°20'0 0.0
2016-Aug-26 17:33N 31°33' E 121°20'0 0.0
2016-Aug-26 16:30N 31°33' E 121°20'0 0.0
2016-Aug-26 15:33N 31°33' E 121°20'0 0.2
2016-Aug-26 14:32N 31°33' E 121°20'0 0.0
2016-Aug-26 13:32N 31°33' E 121°20'0 0.1
2016-Aug-26 12:29N 31°33' E 121°20'0 0.1
2016-Aug-26 11:32N 31°33' E 121°20'0 0.1
2016-Aug-26 10:34N 31°33' E 121°20'9 8.5
2016-Aug-26 09:33N 31°28' E 121°28'9 9.0
2016-Aug-26 08:33N 31°23' E 121°36'111 5.0
2016-Aug-25 10:11N 29°53' E 122°53'811.2
2016-Aug-25 09:27N 29°48' E 122°45'1011.5
2016-Aug-25 08:33N 29°41' E 122°37'1510.7
2016-Aug-25 07:09N 29°44' E 122°20'610.4
2016-Aug-25 06:32N 29°48' E 122°14'18 9.3
2016-Aug-25 04:33N 29°57' E 121°56'10 9.6
2016-Aug-25 03:30N 29°59' E 121°45'0 0.0
2016-Aug-24 09:33N 29°59' E 121°45'2 1.5
2016-Aug-24 08:28N 29°59' E 121°47'11 0.4
2016-Aug-23 06:32N 29°58' E 121°59'1111.1
2016-Aug-23 05:33N 29°54' E 122°11'1111.0
2016-Aug-23 04:32N 29°45' E 122°19'10 9.9
2016-Aug-23 03:32N 29°44' E 122°31'4 0.2
2016-Aug-22 09:33N 29°43' E 122°35'9 9.0
2016-Aug-22 08:33N 29°34' E 122°35'7 7.2
2016-Aug-22 07:32N 29°26' E 122°35'1010.5
2016-Aug-22 06:33N 29°16' E 122°35'  

Dump ship's entire track history